60FL weather

Jupiter Medical Center Heliport
Jupiter, Florida, United States

Public forecast

Using degrees Fahrenheit for public forecast. Weather courtesy of forecast.io.

Closest aviation weather report (METAR) to Jupiter Medical Center Heliport

Closest report is Palm Beach International Airport, 14.6 nm (27.0 km) S. Retrieved 2019/10/14 12:18 UTC (0 seconds ago):

KPBI 141218Z 00000KT 10SM SCT024 BKN034 BKN041 26/23 A3005 RMK AO2 T02560228

Closest aviation forecast (TAF) to Jupiter Medical Center Heliport

Closest forecast is Palm Beach International Airport, 14.6 nm (27.0 km) S. Retrieved 2019/10/14 12:26 UTC (0 seconds ago):

TAF KPBI 141120Z 1412/1512 07007KT P6SM SCT020 BKN030 FM141500 10011KT P6SM SCT025 BKN035 FM150000 09006KT P6SM FEW030 SCT060